Tropical Cyclones
[Index]
Main Index Home Page Stock Weather Photos Extreme Storms Discussion Storm News and Storm Chasing Reports Tropical Cyclones / Hurricanes / Typhoons Weather Data and Links Wild Fires / Bushfires Weather Observation Techniques Weather Picture Catalogue Tornado Pictures and Reports Stock Video Footage and DVDs for sale
Season 2013-2014 Tropical Cyclone DYLAN Track Map
Season 2013-2014 Summaries (Operational Data): [AU] [SIO] [SPAC] [SH]
<<- Previous TC | 2013-2014 Season | Next TC ->>

click for intensity scale information  Lat/long Grid: Show Hide

 Date Labels: Show Hide

Operational Tropical Cyclone Data : JTWC Advisories

Name: DYLAN
Number: 1411

21 Jan 2014 12:00 UTC to 31 Jan 2014 12:00 UTC

    date/time    lat    long     hPa   cat  kts
2014-01-21 12   11.8   172.2    1010         15          
2014-01-21 18   11.2   170.0    1010         15          
2014-01-22 00   11.2   170.6    1010         15          
2014-01-22 06   11.6   169.8    1010         15          
2014-01-22 12   11.6   169.5    1010         15          
2014-01-22 18   11.6   169.2    1010         15          
2014-01-23 00   13.8   166.1    1010         15          
2014-01-23 06   13.8   165.5    1010         15          
2014-01-23 12   13.8   164.8    1010         15          
2014-01-23 18   13.8   163.3    1010         15          
2014-01-24 00   14.0   162.7    1010         15          
2014-01-24 06   14.3   162.2    1010         15          
2014-01-24 12   14.2   161.8    1010         15          
2014-01-24 18   15.1   161.8    1010         15          
2014-01-25 00   14.5   159.6    1010         15          
2014-01-25 06   14.1   158.8    1010         15          
2014-01-25 12   12.6   157.5    1010         15          
2014-01-25 18   11.7   156.7    1010         15          
2014-01-26 00   11.3   156.3    1010         15          
2014-01-26 06   11.2   155.9    1010         15          
2014-01-26 12   11.3   155.3    1010         15          
2014-01-26 18   11.8   154.8    1010         15          
2014-01-27 00   12.7   154.4     998         20          
2014-01-27 06   13.6   154.2     998         20          
2014-01-27 12   14.4   153.9     997         20          
2014-01-27 18   14.8   153.5     997         20          
2014-01-28 00   15.0   153.0     997         30          
2014-01-28 06   15.1   152.3    1004         25          
2014-01-28 12   15.2   151.7     997         30          
2014-01-28 18   15.7   151.3     996         30          
2014-01-29 00   16.1   150.9     996    1    35          
2014-01-29 06   16.5   150.5     996    1    35          
2014-01-29 12   16.9   150.0     994    1    35          
2014-01-29 18   17.5   149.1     991    1    35          
2014-01-30 00   17.6   148.5     989    1    45          
2014-01-30 06   18.3   148.3     985    2    50          
2014-01-30 12   19.0   148.3     982    2    55          
2014-01-30 18   20.4   148.2     985    2    50          
2014-01-31 00   21.3   147.9     993    1    40          
2014-01-31 06   22.5   146.7     998         30          
2014-01-31 12   23.3   146.2     999         20          
Winds are 10-min average.

Tropical cyclone tracks developed by Michael Bath using operational warnings and advisories and Google Maps.


[Australian Severe Weather index] [Copyright Notice] [Email Contacts] [Search This Site] [Privacy Policy]
Document: tropical_cyclone_dylan.htm Updated: 2 May 2017